sensor_id;sensor_type;location;lat;lon;timestamp;temperature;humidity
24636;DHT22;12772;49.794;10.024;2023-02-04T00:02:22;8.90;52.90
24636;DHT22;12772;49.794;10.024;2023-02-04T00:06:24;9.10;52.90
24636;DHT22;12772;49.794;10.024;2023-02-04T00:10:26;8.90;52.70
24636;DHT22;12772;49.794;10.024;2023-02-04T00:14:28;8.70;52.50
24636;DHT22;12772;49.794;10.024;2023-02-04T00:18:30;8.80;52.40
24636;DHT22;12772;49.794;10.024;2023-02-04T00:22:32;8.60;51.70
24636;DHT22;12772;49.794;10.024;2023-02-04T00:26:34;8.90;51.30
24636;DHT22;12772;49.794;10.024;2023-02-04T00:30:36;8.90;51.00
24636;DHT22;12772;49.794;10.024;2023-02-04T00:34:38;8.40;50.60
24636;DHT22;12772;49.794;10.024;2023-02-04T00:38:40;8.80;51.00
24636;DHT22;12772;49.794;10.024;2023-02-04T00:42:42;8.80;51.00
24636;DHT22;12772;49.794;10.024;2023-02-04T00:46:45;8.40;50.10
24636;DHT22;12772;49.794;10.024;2023-02-04T00:50:48;8.40;49.80
24636;DHT22;12772;49.794;10.024;2023-02-04T00:54:50;8.40;49.90
24636;DHT22;12772;49.794;10.024;2023-02-04T00:58:52;8.70;50.30
24636;DHT22;12772;49.794;10.024;2023-02-04T01:02:54;8.60;50.20
24636;DHT22;12772;49.794;10.024;2023-02-04T01:06:56;8.60;50.20
24636;DHT22;12772;49.794;10.024;2023-02-04T01:10:58;8.60;49.70
24636;DHT22;12772;49.794;10.024;2023-02-04T01:15:00;8.20;48.90
24636;DHT22;12772;49.794;10.024;2023-02-04T01:19:02;8.20;49.00
24636;DHT22;12772;49.794;10.024;2023-02-04T01:23:04;8.60;49.80
24636;DHT22;12772;49.794;10.024;2023-02-04T01:27:06;8.20;49.30
24636;DHT22;12772;49.794;10.024;2023-02-04T01:31:08;8.70;50.10
24636;DHT22;12772;49.794;10.024;2023-02-04T01:35:10;8.70;49.90
24636;DHT22;12772;49.794;10.024;2023-02-04T01:39:12;8.70;49.80
24636;DHT22;12772;49.794;10.024;2023-02-04T01:43:16;8.60;50.00
24636;DHT22;12772;49.794;10.024;2023-02-04T01:47:19;8.60;50.30
24636;DHT22;12772;49.794;10.024;2023-02-04T01:51:25;8.80;50.60
24636;DHT22;12772;49.794;10.024;2023-02-04T01:55:31;8.50;50.60
24636;DHT22;12772;49.794;10.024;2023-02-04T01:59:33;8.10;50.40
24636;DHT22;12772;49.794;10.024;2023-02-04T02:03:35;8.50;51.20
24636;DHT22;12772;49.794;10.024;2023-02-04T02:07:37;8.50;52.20
24636;DHT22;12772;49.794;10.024;2023-02-04T02:11:40;8.70;51.80
24636;DHT22;12772;49.794;10.024;2023-02-04T02:15:42;8.50;51.70
24636;DHT22;12772;49.794;10.024;2023-02-04T02:19:44;8.20;51.50
24636;DHT22;12772;49.794;10.024;2023-02-04T02:23:54;8.50;51.80
24636;DHT22;12772;49.794;10.024;2023-02-04T02:27:58;8.50;51.70
24636;DHT22;12772;49.794;10.024;2023-02-04T02:32:01;8.30;51.80
24636;DHT22;12772;49.794;10.024;2023-02-04T02:36:03;8.50;52.10
24636;DHT22;12772;49.794;10.024;2023-02-04T02:40:07;8.70;52.30
24636;DHT22;12772;49.794;10.024;2023-02-04T02:44:11;8.60;52.40
24636;DHT22;12772;49.794;10.024;2023-02-04T02:48:13;8.20;52.10
24636;DHT22;12772;49.794;10.024;2023-02-04T02:52:16;8.40;52.20
24636;DHT22;12772;49.794;10.024;2023-02-04T02:56:19;8.30;52.00
24636;DHT22;12772;49.794;10.024;2023-02-04T03:00:23;8.50;51.90
24636;DHT22;12772;49.794;10.024;2023-02-04T03:04:28;8.60;52.00
24636;DHT22;12772;49.794;10.024;2023-02-04T03:08:31;8.40;51.70
24636;DHT22;12772;49.794;10.024;2023-02-04T03:12:33;8.60;52.00
24636;DHT22;12772;49.794;10.024;2023-02-04T03:16:36;8.20;51.70
24636;DHT22;12772;49.794;10.024;2023-02-04T03:20:40;8.60;52.10
24636;DHT22;12772;49.794;10.024;2023-02-04T03:24:42;8.10;52.40
24636;DHT22;12772;49.794;10.024;2023-02-04T03:28:44;8.40;51.90
24636;DHT22;12772;49.794;10.024;2023-02-04T03:32:46;8.00;51.50
24636;DHT22;12772;49.794;10.024;2023-02-04T03:36:48;8.00;51.30
24636;DHT22;12772;49.794;10.024;2023-02-04T03:40:50;8.70;51.70
24636;DHT22;12772;49.794;10.024;2023-02-04T03:44:52;8.40;51.50
24636;DHT22;12772;49.794;10.024;2023-02-04T03:48:55;8.30;51.20
24636;DHT22;12772;49.794;10.024;2023-02-04T03:52:57;8.30;51.00
24636;DHT22;12772;49.794;10.024;2023-02-04T03:56:59;8.40;50.80
24636;DHT22;12772;49.794;10.024;2023-02-04T04:01:01;8.40;50.80
24636;DHT22;12772;49.794;10.024;2023-02-04T04:05:03;8.30;50.60
24636;DHT22;12772;49.794;10.024;2023-02-04T04:09:05;8.40;50.80
24636;DHT22;12772;49.794;10.024;2023-02-04T04:13:07;8.30;50.80
24636;DHT22;12772;49.794;10.024;2023-02-04T04:17:09;7.80;50.40
24636;DHT22;12772;49.794;10.024;2023-02-04T04:21:11;8.20;51.00
24636;DHT22;12772;49.794;10.024;2023-02-04T04:25:13;8.20;50.80
24636;DHT22;12772;49.794;10.024;2023-02-04T04:29:16;8.30;51.20
24636;DHT22;12772;49.794;10.024;2023-02-04T04:33:17;8.40;51.30
24636;DHT22;12772;49.794;10.024;2023-02-04T04:37:19;8.00;50.60
24636;DHT22;12772;49.794;10.024;2023-02-04T04:41:21;8.60;50.90
24636;DHT22;12772;49.794;10.024;2023-02-04T04:45:23;8.50;50.50
24636;DHT22;12772;49.794;10.024;2023-02-04T04:49:26;8.30;49.90
24636;DHT22;12772;49.794;10.024;2023-02-04T04:53:27;7.80;49.50
24636;DHT22;12772;49.794;10.024;2023-02-04T04:57:30;8.00;49.90
24636;DHT22;12772;49.794;10.024;2023-02-04T05:01:32;8.20;49.80
24636;DHT22;12772;49.794;10.024;2023-02-04T05:05:34;8.20;49.60
24636;DHT22;12772;49.794;10.024;2023-02-04T05:09:40;8.10;50.30
24636;DHT22;12772;49.794;10.024;2023-02-04T05:13:42;7.80;49.30
24636;DHT22;12772;49.794;10.024;2023-02-04T05:17:44;7.90;49.40
24636;DHT22;12772;49.794;10.024;2023-02-04T05:21:46;7.70;49.20
24636;DHT22;12772;49.794;10.024;2023-02-04T05:25:48;7.90;49.90
24636;DHT22;12772;49.794;10.024;2023-02-04T05:29:50;8.00;50.20
24636;DHT22;12772;49.794;10.024;2023-02-04T05:33:52;8.00;50.20
24636;DHT22;12772;49.794;10.024;2023-02-04T05:37:54;7.60;49.70
24636;DHT22;12772;49.794;10.024;2023-02-04T05:41:57;8.10;50.20
24636;DHT22;12772;49.794;10.024;2023-02-04T05:45:59;8.10;50.20
24636;DHT22;12772;49.794;10.024;2023-02-04T05:50:01;7.80;49.70
24636;DHT22;12772;49.794;10.024;2023-02-04T05:54:03;7.70;49.70
24636;DHT22;12772;49.794;10.024;2023-02-04T05:58:05;7.70;50.40
24636;DHT22;12772;49.794;10.024;2023-02-04T06:02:07;7.80;49.90
24636;DHT22;12772;49.794;10.024;2023-02-04T06:06:09;8.10;50.40
24636;DHT22;12772;49.794;10.024;2023-02-04T06:10:10;7.70;49.60
24636;DHT22;12772;49.794;10.024;2023-02-04T06:14:12;8.10;49.90
24636;DHT22;12772;49.794;10.024;2023-02-04T06:18:14;7.60;49.60
24636;DHT22;12772;49.794;10.024;2023-02-04T06:22:16;8.00;50.30
24636;DHT22;12772;49.794;10.024;2023-02-04T06:26:18;8.10;50.40
24636;DHT22;12772;49.794;10.024;2023-02-04T06:30:20;7.80;49.90
24636;DHT22;12772;49.794;10.024;2023-02-04T06:34:22;7.80;50.00
24636;DHT22;12772;49.794;10.024;2023-02-04T06:38:24;8.10;50.30
24636;DHT22;12772;49.794;10.024;2023-02-04T06:42:26;7.90;50.20
24636;DHT22;12772;49.794;10.024;2023-02-04T06:46:28;8.00;50.90
24636;DHT22;12772;49.794;10.024;2023-02-04T06:50:32;7.90;51.70
24636;DHT22;12772;49.794;10.024;2023-02-04T06:54:35;7.90;52.50
24636;DHT22;12772;49.794;10.024;2023-02-04T06:58:38;7.80;53.00
24636;DHT22;12772;49.794;10.024;2023-02-04T07:02:41;7.90;53.80
24636;DHT22;12772;49.794;10.024;2023-02-04T07:06:43;7.70;54.00
24636;DHT22;12772;49.794;10.024;2023-02-04T07:10:45;7.60;54.10
24636;DHT22;12772;49.794;10.024;2023-02-04T07:14:47;7.80;54.70
24636;DHT22;12772;49.794;10.024;2023-02-04T07:18:49;7.50;54.50
24636;DHT22;12772;49.794;10.024;2023-02-04T07:22:51;8.20;55.30
24636;DHT22;12772;49.794;10.024;2023-02-04T07:26:53;7.50;54.60
24636;DHT22;12772;49.794;10.024;2023-02-04T07:30:55;7.60;54.80
24636;DHT22;12772;49.794;10.024;2023-02-04T07:34:59;8.00;55.20
24636;DHT22;12772;49.794;10.024;2023-02-04T07:39:01;8.00;55.40
24636;DHT22;12772;49.794;10.024;2023-02-04T07:43:03;7.60;55.10
24636;DHT22;12772;49.794;10.024;2023-02-04T07:47:05;8.00;55.40
24636;DHT22;12772;49.794;10.024;2023-02-04T07:51:07;7.70;55.30
24636;DHT22;12772;49.794;10.024;2023-02-04T07:55:10;8.00;56.00
24636;DHT22;12772;49.794;10.024;2023-02-04T07:59:12;8.00;56.10
24636;DHT22;12772;49.794;10.024;2023-02-04T08:03:14;8.10;56.20
24636;DHT22;12772;49.794;10.024;2023-02-04T08:07:16;7.60;55.60
24636;DHT22;12772;49.794;10.024;2023-02-04T08:11:18;7.80;55.90
24636;DHT22;12772;49.794;10.024;2023-02-04T08:15:20;8.00;54.50
24636;DHT22;12772;49.794;10.024;2023-02-04T08:19:22;7.70;54.20
24636;DHT22;12772;49.794;10.024;2023-02-04T08:23:24;7.20;53.40
24636;DHT22;12772;49.794;10.024;2023-02-04T08:27:26;7.30;54.00
24636;DHT22;12772;49.794;10.024;2023-02-04T08:31:28;7.50;54.10
24636;DHT22;12772;49.794;10.024;2023-02-04T08:35:30;7.10;53.50
24636;DHT22;12772;49.794;10.024;2023-02-04T08:39:32;7.40;53.40
24636;DHT22;12772;49.794;10.024;2023-02-04T08:43:35;7.40;53.30
24636;DHT22;12772;49.794;10.024;2023-02-04T08:47:37;7.10;52.30
24636;DHT22;12772;49.794;10.024;2023-02-04T08:51:39;7.50;53.00
24636;DHT22;12772;49.794;10.024;2023-02-04T08:55:41;7.20;52.70
24636;DHT22;12772;49.794;10.024;2023-02-04T08:59:43;7.10;52.40
24636;DHT22;12772;49.794;10.024;2023-02-04T09:03:45;7.60;51.70
24636;DHT22;12772;49.794;10.024;2023-02-04T09:07:47;7.60;51.40
24636;DHT22;12772;49.794;10.024;2023-02-04T09:11:49;7.30;50.90
24636;DHT22;12772;49.794;10.024;2023-02-04T09:15:51;7.40;50.70
24636;DHT22;12772;49.794;10.024;2023-02-04T09:19:53;7.80;51.20
24636;DHT22;12772;49.794;10.024;2023-02-04T09:23:56;7.60;49.20
24636;DHT22;12772;49.794;10.024;2023-02-04T09:27:58;7.70;47.70
24636;DHT22;12772;49.794;10.024;2023-02-04T09:32:00;8.00;48.60
24636;DHT22;12772;49.794;10.024;2023-02-04T09:36:02;8.10;48.10
24636;DHT22;12772;49.794;10.024;2023-02-04T09:40:04;8.20;47.70
24636;DHT22;12772;49.794;10.024;2023-02-04T09:44:15;8.20;47.30
24636;DHT22;12772;49.794;10.024;2023-02-04T09:48:17;7.90;46.60
24636;DHT22;12772;49.794;10.024;2023-02-04T09:52:20;8.20;47.10
24636;DHT22;12772;49.794;10.024;2023-02-04T09:56:24;7.80;46.30
24636;DHT22;12772;49.794;10.024;2023-02-04T10:00:29;7.70;46.20
24636;DHT22;12772;49.794;10.024;2023-02-04T10:04:31;8.50;46.10
24636;DHT22;12772;49.794;10.024;2023-02-04T10:08:33;7.90;45.40
24636;DHT22;12772;49.794;10.024;2023-02-04T10:12:35;8.10;45.40
24636;DHT22;12772;49.794;10.024;2023-02-04T10:16:39;8.30;45.20
24636;DHT22;12772;49.794;10.024;2023-02-04T10:20:43;8.50;45.20
24636;DHT22;12772;49.794;10.024;2023-02-04T10:24:45;8.20;43.10
24636;DHT22;12772;49.794;10.024;2023-02-04T10:28:47;7.60;42.80
24636;DHT22;12772;49.794;10.024;2023-02-04T10:32:51;7.80;43.80
24636;DHT22;12772;49.794;10.024;2023-02-04T10:36:54;8.20;44.50
24636;DHT22;12772;49.794;10.024;2023-02-04T10:41:02;7.80;43.60
24636;DHT22;12772;49.794;10.024;2023-02-04T10:45:05;7.90;44.40
24636;DHT22;12772;49.794;10.024;2023-02-04T10:49:21;8.60;44.10
24636;DHT22;12772;49.794;10.024;2023-02-04T10:53:24;8.60;43.60
24636;DHT22;12772;49.794;10.024;2023-02-04T10:57:47;8.60;43.50
24636;DHT22;12772;49.794;10.024;2023-02-04T11:01:49;8.20;43.10
24636;DHT22;12772;49.794;10.024;2023-02-04T11:05:55;8.70;43.60
24636;DHT22;12772;49.794;10.024;2023-02-04T11:09:57;8.60;43.50
24636;DHT22;12772;49.794;10.024;2023-02-04T11:14:01;8.60;43.60
24636;DHT22;12772;49.794;10.024;2023-02-04T11:18:24;8.60;43.50
24636;DHT22;12772;49.794;10.024;2023-02-04T11:22:42;8.80;43.70
24636;DHT22;12772;49.794;10.024;2023-02-04T11:26:49;8.70;43.70
24636;DHT22;12772;49.794;10.024;2023-02-04T11:31:01;8.60;43.50
24636;DHT22;12772;49.794;10.024;2023-02-04T11:39:15;8.80;43.00
24636;DHT22;12772;49.794;10.024;2023-02-04T11:43:17;8.80;43.70
24636;DHT22;12772;49.794;10.024;2023-02-04T11:47:21;8.80;43.70
24636;DHT22;12772;49.794;10.024;2023-02-04T11:51:30;8.90;44.50
24636;DHT22;12772;49.794;10.024;2023-02-04T11:55:36;8.80;43.70
24636;DHT22;12772;49.794;10.024;2023-02-04T11:59:43;8.80;42.90
24636;DHT22;12772;49.794;10.024;2023-02-04T12:03:47;9.00;42.90
24636;DHT22;12772;49.794;10.024;2023-02-04T12:07:50;9.20;42.90
24636;DHT22;12772;49.794;10.024;2023-02-04T12:12:00;8.60;42.20
24636;DHT22;12772;49.794;10.024;2023-02-04T12:16:06;9.00;41.80
24636;DHT22;12772;49.794;10.024;2023-02-04T12:20:08;8.80;41.70
24636;DHT22;12772;49.794;10.024;2023-02-04T12:24:10;9.10;40.70
24636;DHT22;12772;49.794;10.024;2023-02-04T12:28:12;8.90;41.00
24636;DHT22;12772;49.794;10.024;2023-02-04T12:32:14;8.90;41.20
24636;DHT22;12772;49.794;10.024;2023-02-04T12:36:16;9.00;41.20
24636;DHT22;12772;49.794;10.024;2023-02-04T12:40:19;8.80;40.40
24636;DHT22;12772;49.794;10.024;2023-02-04T12:44:22;8.80;40.20
24636;DHT22;12772;49.794;10.024;2023-02-04T12:48:24;9.20;40.50
24636;DHT22;12772;49.794;10.024;2023-02-04T12:52:26;9.00;39.80
24636;DHT22;12772;49.794;10.024;2023-02-04T12:56:28;9.00;39.30
24636;DHT22;12772;49.794;10.024;2023-02-04T13:00:30;9.40;39.10
24636;DHT22;12772;49.794;10.024;2023-02-04T13:04:32;9.50;39.00
24636;DHT22;12772;49.794;10.024;2023-02-04T13:08:36;9.20;38.80
24636;DHT22;12772;49.794;10.024;2023-02-04T13:12:38;9.30;37.70
24636;DHT22;12772;49.794;10.024;2023-02-04T13:16:40;9.40;37.10
24636;DHT22;12772;49.794;10.024;2023-02-04T13:20:42;9.50;38.30
24636;DHT22;12772;49.794;10.024;2023-02-04T13:24:45;9.90;38.20
24636;DHT22;12772;49.794;10.024;2023-02-04T13:28:47;10.00;36.90
24636;DHT22;12772;49.794;10.024;2023-02-04T13:32:49;10.10;37.10
24636;DHT22;12772;49.794;10.024;2023-02-04T13:36:51;9.90;37.40
24636;DHT22;12772;49.794;10.024;2023-02-04T13:40:53;10.30;36.60
24636;DHT22;12772;49.794;10.024;2023-02-04T13:44:55;10.20;35.50
24636;DHT22;12772;49.794;10.024;2023-02-04T13:48:57;10.10;34.50
24636;DHT22;12772;49.794;10.024;2023-02-04T13:53:00;10.10;35.60
24636;DHT22;12772;49.794;10.024;2023-02-04T13:57:02;10.20;36.40
24636;DHT22;12772;49.794;10.024;2023-02-04T14:01:05;9.90;37.00
24636;DHT22;12772;49.794;10.024;2023-02-04T14:05:07;10.30;35.90
24636;DHT22;12772;49.794;10.024;2023-02-04T14:09:10;10.10;35.90
24636;DHT22;12772;49.794;10.024;2023-02-04T14:13:13;10.10;35.10
24636;DHT22;12772;49.794;10.024;2023-02-04T14:17:15;9.60;35.40
24636;DHT22;12772;49.794;10.024;2023-02-04T14:21:17;9.90;36.10
24636;DHT22;12772;49.794;10.024;2023-02-04T14:25:19;9.70;36.50
24636;DHT22;12772;49.794;10.024;2023-02-04T14:29:21;9.80;36.50
24636;DHT22;12772;49.794;10.024;2023-02-04T14:33:23;9.40;36.70
24636;DHT22;12772;49.794;10.024;2023-02-04T14:37:25;9.40;36.80
24636;DHT22;12772;49.794;10.024;2023-02-04T14:41:28;9.70;37.40
24636;DHT22;12772;49.794;10.024;2023-02-04T14:45:31;9.60;36.90
24636;DHT22;12772;49.794;10.024;2023-02-04T14:49:33;9.40;36.70
24636;DHT22;12772;49.794;10.024;2023-02-04T14:53:36;9.30;37.00
24636;DHT22;12772;49.794;10.024;2023-02-04T14:57:38;9.20;37.30
24636;DHT22;12772;49.794;10.024;2023-02-04T15:01:40;9.20;37.80
24636;DHT22;12772;49.794;10.024;2023-02-04T15:05:44;8.90;37.70
24636;DHT22;12772;49.794;10.024;2023-02-04T15:09:46;9.10;38.00
24636;DHT22;12772;49.794;10.024;2023-02-04T15:13:48;8.80;37.80
24636;DHT22;12772;49.794;10.024;2023-02-04T15:17:50;9.10;37.90
24636;DHT22;12772;49.794;10.024;2023-02-04T15:21:52;9.10;37.90
24636;DHT22;12772;49.794;10.024;2023-02-04T15:25:54;8.80;37.80
24636;DHT22;12772;49.794;10.024;2023-02-04T15:29:57;8.80;37.80
24636;DHT22;12772;49.794;10.024;2023-02-04T15:34:00;8.60;37.50
24636;DHT22;12772;49.794;10.024;2023-02-04T15:38:02;8.90;37.70
24636;DHT22;12772;49.794;10.024;2023-02-04T15:42:04;8.40;37.60
24636;DHT22;12772;49.794;10.024;2023-02-04T15:46:06;8.70;38.30
24636;DHT22;12772;49.794;10.024;2023-02-04T15:50:08;8.30;38.00
24636;DHT22;12772;49.794;10.024;2023-02-04T15:54:12;8.60;38.50
24636;DHT22;12772;49.794;10.024;2023-02-04T15:58:15;8.80;39.00
24636;DHT22;12772;49.794;10.024;2023-02-04T16:02:17;8.40;38.70
24636;DHT22;12772;49.794;10.024;2023-02-04T16:06:19;8.30;39.00
24636;DHT22;12772;49.794;10.024;2023-02-04T16:10:21;8.20;39.20
24636;DHT22;12772;49.794;10.024;2023-02-04T16:14:23;8.20;38.60
24636;DHT22;12772;49.794;10.024;2023-02-04T16:18:25;8.50;38.70
24636;DHT22;12772;49.794;10.024;2023-02-04T16:22:27;8.50;39.00
24636;DHT22;12772;49.794;10.024;2023-02-04T16:26:29;7.90;38.90
24636;DHT22;12772;49.794;10.024;2023-02-04T16:30:32;7.90;39.10
24636;DHT22;12772;49.794;10.024;2023-02-04T16:34:34;8.00;39.40
24636;DHT22;12772;49.794;10.024;2023-02-04T16:38:36;7.90;39.20
24636;DHT22;12772;49.794;10.024;2023-02-04T16:42:39;7.80;39.30
24636;DHT22;12772;49.794;10.024;2023-02-04T16:46:41;7.60;39.30
24636;DHT22;12772;49.794;10.024;2023-02-04T16:50:43;7.80;40.00
24636;DHT22;12772;49.794;10.024;2023-02-04T16:54:45;7.90;40.40
24636;DHT22;12772;49.794;10.024;2023-02-04T16:58:47;7.60;40.10
24636;DHT22;12772;49.794;10.024;2023-02-04T17:02:49;7.80;40.60
24636;DHT22;12772;49.794;10.024;2023-02-04T17:06:52;7.80;40.80
24636;DHT22;12772;49.794;10.024;2023-02-04T17:10:54;7.80;41.30
24636;DHT22;12772;49.794;10.024;2023-02-04T17:15:13;7.50;42.50
24636;DHT22;12772;49.794;10.024;2023-02-04T17:19:17;7.70;42.20
24636;DHT22;12772;49.794;10.024;2023-02-04T17:23:21;7.20;42.00
24636;DHT22;12772;49.794;10.024;2023-02-04T17:27:23;7.30;42.20
24636;DHT22;12772;49.794;10.024;2023-02-04T17:31:25;7.70;42.60
24636;DHT22;12772;49.794;10.024;2023-02-04T17:35:27;7.30;42.20
24636;DHT22;12772;49.794;10.024;2023-02-04T17:39:29;7.20;42.00
24636;DHT22;12772;49.794;10.024;2023-02-04T17:43:31;7.40;42.20
24636;DHT22;12772;49.794;10.024;2023-02-04T17:47:34;7.50;42.40
24636;DHT22;12772;49.794;10.024;2023-02-04T17:51:36;7.50;42.40
24636;DHT22;12772;49.794;10.024;2023-02-04T17:55:38;7.50;42.30
24636;DHT22;12772;49.794;10.024;2023-02-04T17:59:40;7.00;41.80
24636;DHT22;12772;49.794;10.024;2023-02-04T18:03:42;7.40;42.80
24636;DHT22;12772;49.794;10.024;2023-02-04T18:08:01;7.40;42.90
24636;DHT22;12772;49.794;10.024;2023-02-04T18:12:12;7.20;43.00
24636;DHT22;12772;49.794;10.024;2023-02-04T18:16:26;7.00;43.00
24636;DHT22;12772;49.794;10.024;2023-02-04T18:20:30;7.30;43.30
24636;DHT22;12772;49.794;10.024;2023-02-04T18:24:34;7.10;43.20
24636;DHT22;12772;49.794;10.024;2023-02-04T18:28:43;6.70;43.10
24636;DHT22;12772;49.794;10.024;2023-02-04T18:32:45;6.80;43.60
24636;DHT22;12772;49.794;10.024;2023-02-04T18:36:47;6.60;43.80
24636;DHT22;12772;49.794;10.024;2023-02-04T18:40:54;6.60;44.00
24636;DHT22;12772;49.794;10.024;2023-02-04T18:44:59;6.50;44.70
24636;DHT22;12772;49.794;10.024;2023-02-04T18:49:29;5.90;43.80
24636;DHT22;12772;49.794;10.024;2023-02-04T18:53:34;6.40;45.10
24636;DHT22;12772;49.794;10.024;2023-02-04T18:57:37;6.50;45.50
24636;DHT22;12772;49.794;10.024;2023-02-04T19:01:39;6.20;45.20
24636;DHT22;12772;49.794;10.024;2023-02-04T19:05:46;5.80;44.60
24636;DHT22;12772;49.794;10.024;2023-02-04T19:09:48;6.10;45.20
24636;DHT22;12772;49.794;10.024;2023-02-04T19:13:54;6.30;45.90
24636;DHT22;12772;49.794;10.024;2023-02-04T19:18:03;5.60;45.00
24636;DHT22;12772;49.794;10.024;2023-02-04T19:22:17;6.10;45.40
24636;DHT22;12772;49.794;10.024;2023-02-04T19:26:39;5.60;45.40
24636;DHT22;12772;49.794;10.024;2023-02-04T19:30:45;5.60;45.50
24636;DHT22;12772;49.794;10.024;2023-02-04T19:34:51;5.70;45.50
24636;DHT22;12772;49.794;10.024;2023-02-04T19:39:03;5.70;45.50
24636;DHT22;12772;49.794;10.024;2023-02-04T19:43:35;6.00;45.90
24636;DHT22;12772;49.794;10.024;2023-02-04T19:47:42;6.10;46.00
24636;DHT22;12772;49.794;10.024;2023-02-04T19:51:47;6.10;45.90
24636;DHT22;12772;49.794;10.024;2023-02-04T19:55:53;6.10;45.90
24636;DHT22;12772;49.794;10.024;2023-02-04T19:59:55;6.20;46.00
24636;DHT22;12772;49.794;10.024;2023-02-04T20:03:58;6.10;45.70
24636;DHT22;12772;49.794;10.024;2023-02-04T20:12:37;6.10;45.40
24636;DHT22;12772;49.794;10.024;2023-02-04T20:20:58;5.40;45.20
24636;DHT22;12772;49.794;10.024;2023-02-04T20:29:41;5.60;45.80
24636;DHT22;12772;49.794;10.024;2023-02-04T20:33:48;5.50;46.30
24636;DHT22;12772;49.794;10.024;2023-02-04T20:37:52;4.90;46.30
24636;DHT22;12772;49.794;10.024;2023-02-04T20:46:23;5.40;47.00
24636;DHT22;12772;49.794;10.024;2023-02-04T20:50:40;5.40;47.40
24636;DHT22;12772;49.794;10.024;2023-02-04T20:54:42;5.50;47.30
24636;DHT22;12772;49.794;10.024;2023-02-04T20:58:44;5.20;47.00
24636;DHT22;12772;49.794;10.024;2023-02-04T21:02:47;5.40;47.20
24636;DHT22;12772;49.794;10.024;2023-02-04T21:06:50;5.10;46.80
24636;DHT22;12772;49.794;10.024;2023-02-04T21:10:53;5.10;46.90
24636;DHT22;12772;49.794;10.024;2023-02-04T21:14:55;5.50;47.30
24636;DHT22;12772;49.794;10.024;2023-02-04T21:19:01;5.40;47.20
24636;DHT22;12772;49.794;10.024;2023-02-04T21:23:04;5.10;46.70
24636;DHT22;12772;49.794;10.024;2023-02-04T21:27:06;5.40;46.80
24636;DHT22;12772;49.794;10.024;2023-02-04T21:31:08;5.10;46.70
24636;DHT22;12772;49.794;10.024;2023-02-04T21:35:20;5.40;47.10
24636;DHT22;12772;49.794;10.024;2023-02-04T21:39:24;5.20;46.60
24636;DHT22;12772;49.794;10.024;2023-02-04T21:43:26;4.90;46.50
24636;DHT22;12772;49.794;10.024;2023-02-04T21:47:28;4.90;46.70
24636;DHT22;12772;49.794;10.024;2023-02-04T21:51:30;4.80;46.80
24636;DHT22;12772;49.794;10.024;2023-02-04T21:55:32;4.60;46.70
24636;DHT22;12772;49.794;10.024;2023-02-04T21:59:34;4.60;46.90
24636;DHT22;12772;49.794;10.024;2023-02-04T22:03:36;5.10;47.50
24636;DHT22;12772;49.794;10.024;2023-02-04T22:07:38;5.10;47.60
24636;DHT22;12772;49.794;10.024;2023-02-04T22:11:41;4.70;47.30
24636;DHT22;12772;49.794;10.024;2023-02-04T22:15:43;5.10;47.90
24636;DHT22;12772;49.794;10.024;2023-02-04T22:19:48;4.60;47.10
24636;DHT22;12772;49.794;10.024;2023-02-04T22:23:50;4.80;47.30
24636;DHT22;12772;49.794;10.024;2023-02-04T22:27:52;4.50;47.00
24636;DHT22;12772;49.794;10.024;2023-02-04T22:31:55;5.10;47.90
24636;DHT22;12772;49.794;10.024;2023-02-04T22:35:57;4.90;47.80
24636;DHT22;12772;49.794;10.024;2023-02-04T22:39:59;5.10;47.90
24636;DHT22;12772;49.794;10.024;2023-02-04T22:44:01;5.00;47.70
24636;DHT22;12772;49.794;10.024;2023-02-04T22:48:03;5.20;47.80
24636;DHT22;12772;49.794;10.024;2023-02-04T22:52:05;4.60;47.20
24636;DHT22;12772;49.794;10.024;2023-02-04T22:56:07;4.90;47.50
24636;DHT22;12772;49.794;10.024;2023-02-04T23:00:10;4.80;47.40
24636;DHT22;12772;49.794;10.024;2023-02-04T23:04:12;5.00;47.60
24636;DHT22;12772;49.794;10.024;2023-02-04T23:08:14;4.40;46.90
24636;DHT22;12772;49.794;10.024;2023-02-04T23:12:17;4.80;46.90
24636;DHT22;12772;49.794;10.024;2023-02-04T23:16:19;4.70;47.00
24636;DHT22;12772;49.794;10.024;2023-02-04T23:20:21;4.50;47.00
24636;DHT22;12772;49.794;10.024;2023-02-04T23:24:23;4.20;46.50
24636;DHT22;12772;49.794;10.024;2023-02-04T23:28:26;4.60;47.10
24636;DHT22;12772;49.794;10.024;2023-02-04T23:32:28;4.10;46.70
24636;DHT22;12772;49.794;10.024;2023-02-04T23:36:30;4.30;46.90
24636;DHT22;12772;49.794;10.024;2023-02-04T23:40:37;4.60;47.20
24636;DHT22;12772;49.794;10.024;2023-02-04T23:44:39;4.00;46.60
24636;DHT22;12772;49.794;10.024;2023-02-04T23:48:41;4.50;47.00
24636;DHT22;12772;49.794;10.024;2023-02-04T23:52:43;4.20;47.10
24636;DHT22;12772;49.794;10.024;2023-02-04T23:56:45;4.20;47.40
